sensor_id;sensor_type;location;lat;lon;timestamp;P1;durP1;ratioP1;P2;durP2;ratioP2
13588;SDS011;6865;52.552;13.434;2022-10-10T00:00:47;6.63;;;2.67;;
13588;SDS011;6865;52.552;13.434;2022-10-10T00:03:14;8.20;;;2.77;;
13588;SDS011;6865;52.552;13.434;2022-10-10T00:05:41;4.53;;;2.20;;
13588;SDS011;6865;52.552;13.434;2022-10-10T00:08:08;5.33;;;2.40;;
13588;SDS011;6865;52.552;13.434;2022-10-10T00:10:35;3.67;;;2.10;;
13588;SDS011;6865;52.552;13.434;2022-10-10T00:13:02;6.43;;;2.33;;
13588;SDS011;6865;52.552;13.434;2022-10-10T00:15:29;3.83;;;2.30;;
13588;SDS011;6865;52.552;13.434;2022-10-10T00:17:56;9.00;;;2.90;;
13588;SDS011;6865;52.552;13.434;2022-10-10T00:20:22;7.90;;;2.80;;
13588;SDS011;6865;52.552;13.434;2022-10-10T00:22:49;6.93;;;2.53;;
13588;SDS011;6865;52.552;13.434;2022-10-10T00:25:16;6.00;;;2.90;;
13588;SDS011;6865;52.552;13.434;2022-10-10T00:27:43;6.23;;;2.47;;
13588;SDS011;6865;52.552;13.434;2022-10-10T00:30:09;7.33;;;2.63;;
13588;SDS011;6865;52.552;13.434;2022-10-10T00:32:36;5.37;;;2.50;;
13588;SDS011;6865;52.552;13.434;2022-10-10T00:35:03;8.03;;;2.60;;
13588;SDS011;6865;52.552;13.434;2022-10-10T00:37:30;6.00;;;3.03;;
13588;SDS011;6865;52.552;13.434;2022-10-10T00:39:57;5.70;;;2.77;;
13588;SDS011;6865;52.552;13.434;2022-10-10T00:42:23;6.87;;;3.00;;
13588;SDS011;6865;52.552;13.434;2022-10-10T00:45:24;5.43;;;2.60;;
13588;SDS011;6865;52.552;13.434;2022-10-10T00:47:57;6.40;;;2.90;;
13588;SDS011;6865;52.552;13.434;2022-10-10T00:50:47;4.97;;;2.43;;
13588;SDS011;6865;52.552;13.434;2022-10-10T00:53:18;7.37;;;2.60;;
13588;SDS011;6865;52.552;13.434;2022-10-10T00:55:48;5.60;;;2.20;;
13588;SDS011;6865;52.552;13.434;2022-10-10T00:58:16;5.47;;;2.67;;
13588;SDS011;6865;52.552;13.434;2022-10-10T01:00:43;6.10;;;3.00;;
13588;SDS011;6865;52.552;13.434;2022-10-10T01:03:10;5.27;;;2.67;;
13588;SDS011;6865;52.552;13.434;2022-10-10T01:05:37;4.47;;;2.30;;
13588;SDS011;6865;52.552;13.434;2022-10-10T01:08:05;5.73;;;2.60;;
13588;SDS011;6865;52.552;13.434;2022-10-10T01:10:35;13.40;;;6.13;;
13588;SDS011;6865;52.552;13.434;2022-10-10T01:16:05;11.30;;;5.63;;
13588;SDS011;6865;52.552;13.434;2022-10-10T01:18:42;9.30;;;4.50;;
13588;SDS011;6865;52.552;13.434;2022-10-10T01:21:27;7.87;;;3.10;;
13588;SDS011;6865;52.552;13.434;2022-10-10T01:24:08;4.10;;;2.57;;
13588;SDS011;6865;52.552;13.434;2022-10-10T01:32:46;8.93;;;2.80;;
13588;SDS011;6865;52.552;13.434;2022-10-10T01:38:13;8.37;;;2.80;;
13588;SDS011;6865;52.552;13.434;2022-10-10T01:41:02;5.03;;;2.93;;
13588;SDS011;6865;52.552;13.434;2022-10-10T01:43:34;7.80;;;3.00;;
13588;SDS011;6865;52.552;13.434;2022-10-10T01:46:12;5.67;;;2.77;;
13588;SDS011;6865;52.552;13.434;2022-10-10T01:48:43;8.63;;;2.70;;
13588;SDS011;6865;52.552;13.434;2022-10-10T01:54:23;5.10;;;2.90;;
13588;SDS011;6865;52.552;13.434;2022-10-10T01:57:15;8.20;;;2.90;;
13588;SDS011;6865;52.552;13.434;2022-10-10T01:59:52;6.57;;;2.80;;
13588;SDS011;6865;52.552;13.434;2022-10-10T02:02:32;6.53;;;2.80;;
13588;SDS011;6865;52.552;13.434;2022-10-10T02:05:38;5.63;;;2.97;;
13588;SDS011;6865;52.552;13.434;2022-10-10T02:08:14;6.57;;;2.77;;
13588;SDS011;6865;52.552;13.434;2022-10-10T02:10:58;5.80;;;2.80;;
13588;SDS011;6865;52.552;13.434;2022-10-10T02:13:34;6.83;;;3.03;;
13588;SDS011;6865;52.552;13.434;2022-10-10T02:16:11;8.40;;;3.13;;
13588;SDS011;6865;52.552;13.434;2022-10-10T02:18:41;7.70;;;3.83;;
13588;SDS011;6865;52.552;13.434;2022-10-10T02:21:10;6.17;;;2.87;;
13588;SDS011;6865;52.552;13.434;2022-10-10T02:23:39;6.43;;;2.90;;
13588;SDS011;6865;52.552;13.434;2022-10-10T02:26:08;6.97;;;3.17;;
13588;SDS011;6865;52.552;13.434;2022-10-10T02:28:49;7.53;;;2.80;;
13588;SDS011;6865;52.552;13.434;2022-10-10T02:31:25;6.77;;;3.10;;
13588;SDS011;6865;52.552;13.434;2022-10-10T02:33:56;8.40;;;2.87;;
13588;SDS011;6865;52.552;13.434;2022-10-10T02:36:30;10.37;;;2.73;;
13588;SDS011;6865;52.552;13.434;2022-10-10T02:38:57;8.83;;;2.80;;
13588;SDS011;6865;52.552;13.434;2022-10-10T02:41:25;5.37;;;2.70;;
13588;SDS011;6865;52.552;13.434;2022-10-10T02:43:53;5.37;;;2.50;;
13588;SDS011;6865;52.552;13.434;2022-10-10T02:46:21;5.83;;;2.47;;
13588;SDS011;6865;52.552;13.434;2022-10-10T02:48:48;3.93;;;2.27;;
13588;SDS011;6865;52.552;13.434;2022-10-10T02:51:14;6.70;;;3.07;;
13588;SDS011;6865;52.552;13.434;2022-10-10T02:53:42;4.53;;;2.30;;
13588;SDS011;6865;52.552;13.434;2022-10-10T02:56:09;5.23;;;2.60;;
13588;SDS011;6865;52.552;13.434;2022-10-10T02:58:36;6.33;;;3.13;;
13588;SDS011;6865;52.552;13.434;2022-10-10T03:01:03;8.97;;;2.90;;
13588;SDS011;6865;52.552;13.434;2022-10-10T03:03:30;5.57;;;2.93;;
13588;SDS011;6865;52.552;13.434;2022-10-10T03:05:56;5.13;;;2.67;;
13588;SDS011;6865;52.552;13.434;2022-10-10T03:08:23;5.53;;;2.83;;
13588;SDS011;6865;52.552;13.434;2022-10-10T03:10:56;7.20;;;2.87;;
13588;SDS011;6865;52.552;13.434;2022-10-10T03:13:25;7.33;;;2.90;;
13588;SDS011;6865;52.552;13.434;2022-10-10T03:15:52;6.87;;;2.57;;
13588;SDS011;6865;52.552;13.434;2022-10-10T03:18:19;6.73;;;2.53;;
13588;SDS011;6865;52.552;13.434;2022-10-10T03:20:49;6.10;;;2.50;;
13588;SDS011;6865;52.552;13.434;2022-10-10T03:23:16;7.40;;;3.27;;
13588;SDS011;6865;52.552;13.434;2022-10-10T03:25:43;6.30;;;2.80;;
13588;SDS011;6865;52.552;13.434;2022-10-10T03:28:10;6.17;;;2.77;;
13588;SDS011;6865;52.552;13.434;2022-10-10T03:30:37;6.67;;;2.70;;
13588;SDS011;6865;52.552;13.434;2022-10-10T03:33:05;7.97;;;2.73;;
13588;SDS011;6865;52.552;13.434;2022-10-10T03:35:31;7.60;;;2.70;;
13588;SDS011;6865;52.552;13.434;2022-10-10T03:37:58;5.50;;;2.77;;
13588;SDS011;6865;52.552;13.434;2022-10-10T03:40:26;4.63;;;2.57;;
13588;SDS011;6865;52.552;13.434;2022-10-10T03:42:55;8.53;;;3.27;;
13588;SDS011;6865;52.552;13.434;2022-10-10T03:45:22;4.80;;;2.47;;
13588;SDS011;6865;52.552;13.434;2022-10-10T03:47:49;8.87;;;3.17;;
13588;SDS011;6865;52.552;13.434;2022-10-10T03:50:16;5.70;;;3.00;;
13588;SDS011;6865;52.552;13.434;2022-10-10T03:52:43;6.90;;;2.97;;
13588;SDS011;6865;52.552;13.434;2022-10-10T03:55:09;5.47;;;2.93;;
13588;SDS011;6865;52.552;13.434;2022-10-10T03:57:36;11.13;;;3.10;;
13588;SDS011;6865;52.552;13.434;2022-10-10T04:00:03;6.03;;;3.17;;
13588;SDS011;6865;52.552;13.434;2022-10-10T04:02:30;8.03;;;3.10;;
13588;SDS011;6865;52.552;13.434;2022-10-10T04:04:56;5.63;;;2.90;;
13588;SDS011;6865;52.552;13.434;2022-10-10T04:07:23;10.23;;;3.43;;
13588;SDS011;6865;52.552;13.434;2022-10-10T04:09:50;6.10;;;2.93;;
13588;SDS011;6865;52.552;13.434;2022-10-10T04:12:16;7.27;;;2.77;;
13588;SDS011;6865;52.552;13.434;2022-10-10T04:14:43;6.50;;;2.77;;
13588;SDS011;6865;52.552;13.434;2022-10-10T04:17:09;6.87;;;3.27;;
13588;SDS011;6865;52.552;13.434;2022-10-10T04:19:36;6.60;;;3.17;;
13588;SDS011;6865;52.552;13.434;2022-10-10T04:22:02;5.33;;;2.60;;
13588;SDS011;6865;52.552;13.434;2022-10-10T04:24:35;7.57;;;3.00;;
13588;SDS011;6865;52.552;13.434;2022-10-10T04:27:02;7.23;;;3.10;;
13588;SDS011;6865;52.552;13.434;2022-10-10T04:29:28;6.50;;;2.77;;
13588;SDS011;6865;52.552;13.434;2022-10-10T04:31:55;5.27;;;2.80;;
13588;SDS011;6865;52.552;13.434;2022-10-10T04:34:22;5.77;;;2.77;;
13588;SDS011;6865;52.552;13.434;2022-10-10T04:36:48;11.63;;;3.23;;
13588;SDS011;6865;52.552;13.434;2022-10-10T04:39:15;8.37;;;3.57;;
13588;SDS011;6865;52.552;13.434;2022-10-10T04:41:41;8.40;;;3.50;;
13588;SDS011;6865;52.552;13.434;2022-10-10T04:44:08;5.37;;;3.37;;
13588;SDS011;6865;52.552;13.434;2022-10-10T04:46:35;5.70;;;3.70;;
13588;SDS011;6865;52.552;13.434;2022-10-10T04:49:01;7.10;;;3.80;;
13588;SDS011;6865;52.552;13.434;2022-10-10T04:51:28;5.40;;;3.47;;
13588;SDS011;6865;52.552;13.434;2022-10-10T04:53:54;6.90;;;3.40;;
13588;SDS011;6865;52.552;13.434;2022-10-10T04:56:21;6.17;;;3.40;;
13588;SDS011;6865;52.552;13.434;2022-10-10T04:58:50;6.50;;;3.07;;
13588;SDS011;6865;52.552;13.434;2022-10-10T05:01:16;7.87;;;3.30;;
13588;SDS011;6865;52.552;13.434;2022-10-10T05:03:43;6.23;;;3.30;;
13588;SDS011;6865;52.552;13.434;2022-10-10T05:06:10;9.23;;;3.47;;
13588;SDS011;6865;52.552;13.434;2022-10-10T05:08:36;7.33;;;3.50;;
13588;SDS011;6865;52.552;13.434;2022-10-10T05:11:03;13.37;;;4.83;;
13588;SDS011;6865;52.552;13.434;2022-10-10T05:13:30;10.50;;;4.00;;
13588;SDS011;6865;52.552;13.434;2022-10-10T05:15:56;7.43;;;3.67;;
13588;SDS011;6865;52.552;13.434;2022-10-10T05:18:23;7.40;;;4.20;;
13588;SDS011;6865;52.552;13.434;2022-10-10T05:20:50;5.57;;;3.13;;
13588;SDS011;6865;52.552;13.434;2022-10-10T05:23:17;7.87;;;3.47;;
13588;SDS011;6865;52.552;13.434;2022-10-10T05:25:44;5.83;;;3.20;;
13588;SDS011;6865;52.552;13.434;2022-10-10T05:28:13;7.63;;;3.23;;
13588;SDS011;6865;52.552;13.434;2022-10-10T05:30:40;7.40;;;3.50;;
13588;SDS011;6865;52.552;13.434;2022-10-10T05:33:07;8.60;;;3.80;;
13588;SDS011;6865;52.552;13.434;2022-10-10T05:35:33;10.07;;;4.03;;
13588;SDS011;6865;52.552;13.434;2022-10-10T05:38:00;15.60;;;4.03;;
13588;SDS011;6865;52.552;13.434;2022-10-10T05:40:27;6.07;;;3.20;;
13588;SDS011;6865;52.552;13.434;2022-10-10T05:42:54;7.30;;;3.67;;
13588;SDS011;6865;52.552;13.434;2022-10-10T05:45:21;6.27;;;3.57;;
13588;SDS011;6865;52.552;13.434;2022-10-10T05:47:48;7.90;;;3.87;;
13588;SDS011;6865;52.552;13.434;2022-10-10T05:50:33;6.47;;;3.87;;
13588;SDS011;6865;52.552;13.434;2022-10-10T05:53:03;12.47;;;4.80;;
13588;SDS011;6865;52.552;13.434;2022-10-10T05:55:32;9.30;;;5.23;;
13588;SDS011;6865;52.552;13.434;2022-10-10T05:57:59;7.97;;;4.53;;
13588;SDS011;6865;52.552;13.434;2022-10-10T06:00:25;8.97;;;4.50;;
13588;SDS011;6865;52.552;13.434;2022-10-10T06:02:52;5.63;;;3.50;;
13588;SDS011;6865;52.552;13.434;2022-10-10T06:05:19;10.20;;;3.97;;
13588;SDS011;6865;52.552;13.434;2022-10-10T06:07:46;8.40;;;3.70;;
13588;SDS011;6865;52.552;13.434;2022-10-10T06:10:36;5.20;;;3.43;;
13588;SDS011;6865;52.552;13.434;2022-10-10T06:13:04;11.33;;;4.30;;
13588;SDS011;6865;52.552;13.434;2022-10-10T06:15:30;21.20;;;6.63;;
13588;SDS011;6865;52.552;13.434;2022-10-10T06:17:57;7.17;;;4.17;;
13588;SDS011;6865;52.552;13.434;2022-10-10T06:20:24;8.67;;;3.87;;
13588;SDS011;6865;52.552;13.434;2022-10-10T06:22:50;9.03;;;3.83;;
13588;SDS011;6865;52.552;13.434;2022-10-10T06:25:18;7.33;;;3.50;;
13588;SDS011;6865;52.552;13.434;2022-10-10T06:28:04;7.27;;;3.90;;
13588;SDS011;6865;52.552;13.434;2022-10-10T06:30:31;9.13;;;3.80;;
13588;SDS011;6865;52.552;13.434;2022-10-10T06:33:00;7.30;;;3.90;;
13588;SDS011;6865;52.552;13.434;2022-10-10T06:35:27;7.87;;;3.83;;
13588;SDS011;6865;52.552;13.434;2022-10-10T06:37:53;8.87;;;3.63;;
13588;SDS011;6865;52.552;13.434;2022-10-10T06:40:20;5.87;;;3.47;;
13588;SDS011;6865;52.552;13.434;2022-10-10T06:42:46;6.30;;;3.50;;
13588;SDS011;6865;52.552;13.434;2022-10-10T06:45:13;12.40;;;3.77;;
13588;SDS011;6865;52.552;13.434;2022-10-10T06:47:40;7.13;;;3.53;;
13588;SDS011;6865;52.552;13.434;2022-10-10T06:50:07;7.67;;;3.60;;
13588;SDS011;6865;52.552;13.434;2022-10-10T06:52:33;8.17;;;4.03;;
13588;SDS011;6865;52.552;13.434;2022-10-10T06:55:00;4.63;;;3.13;;
13588;SDS011;6865;52.552;13.434;2022-10-10T06:57:27;8.20;;;3.60;;
13588;SDS011;6865;52.552;13.434;2022-10-10T06:59:54;8.37;;;3.90;;
13588;SDS011;6865;52.552;13.434;2022-10-10T07:02:20;10.40;;;4.30;;
13588;SDS011;6865;52.552;13.434;2022-10-10T07:04:48;15.63;;;4.00;;
13588;SDS011;6865;52.552;13.434;2022-10-10T07:07:14;8.13;;;3.70;;
13588;SDS011;6865;52.552;13.434;2022-10-10T07:09:41;10.10;;;4.20;;
13588;SDS011;6865;52.552;13.434;2022-10-10T07:12:08;9.63;;;3.43;;
13588;SDS011;6865;52.552;13.434;2022-10-10T07:14:35;7.70;;;3.40;;
13588;SDS011;6865;52.552;13.434;2022-10-10T07:17:01;8.17;;;3.33;;
13588;SDS011;6865;52.552;13.434;2022-10-10T07:19:29;7.97;;;3.80;;
13588;SDS011;6865;52.552;13.434;2022-10-10T07:21:55;8.47;;;3.80;;
13588;SDS011;6865;52.552;13.434;2022-10-10T07:24:22;8.37;;;3.40;;
13588;SDS011;6865;52.552;13.434;2022-10-10T07:26:49;7.10;;;3.67;;
13588;SDS011;6865;52.552;13.434;2022-10-10T07:29:30;6.13;;;3.47;;
13588;SDS011;6865;52.552;13.434;2022-10-10T07:31:57;7.57;;;3.50;;
13588;SDS011;6865;52.552;13.434;2022-10-10T07:34:24;6.57;;;3.50;;
13588;SDS011;6865;52.552;13.434;2022-10-10T07:36:52;7.60;;;3.20;;
13588;SDS011;6865;52.552;13.434;2022-10-10T07:39:22;6.60;;;3.17;;
13588;SDS011;6865;52.552;13.434;2022-10-10T07:41:49;5.70;;;3.37;;
13588;SDS011;6865;52.552;13.434;2022-10-10T07:44:19;8.37;;;3.70;;
13588;SDS011;6865;52.552;13.434;2022-10-10T07:46:46;8.43;;;3.67;;
13588;SDS011;6865;52.552;13.434;2022-10-10T07:49:12;6.07;;;3.63;;
13588;SDS011;6865;52.552;13.434;2022-10-10T07:51:39;9.60;;;3.53;;
13588;SDS011;6865;52.552;13.434;2022-10-10T07:54:06;8.87;;;3.50;;
13588;SDS011;6865;52.552;13.434;2022-10-10T07:56:32;10.37;;;4.07;;
13588;SDS011;6865;52.552;13.434;2022-10-10T07:58:59;7.77;;;3.33;;
13588;SDS011;6865;52.552;13.434;2022-10-10T08:01:26;6.43;;;3.70;;
13588;SDS011;6865;52.552;13.434;2022-10-10T08:03:54;11.83;;;3.97;;
13588;SDS011;6865;52.552;13.434;2022-10-10T08:06:22;5.47;;;3.30;;
13588;SDS011;6865;52.552;13.434;2022-10-10T08:08:49;7.33;;;3.53;;
13588;SDS011;6865;52.552;13.434;2022-10-10T08:11:18;9.23;;;3.60;;
13588;SDS011;6865;52.552;13.434;2022-10-10T08:13:46;9.50;;;3.60;;
13588;SDS011;6865;52.552;13.434;2022-10-10T08:16:14;7.30;;;3.30;;
13588;SDS011;6865;52.552;13.434;2022-10-10T08:18:41;6.90;;;3.40;;
13588;SDS011;6865;52.552;13.434;2022-10-10T08:21:08;9.57;;;3.53;;
13588;SDS011;6865;52.552;13.434;2022-10-10T08:23:36;6.23;;;3.57;;
13588;SDS011;6865;52.552;13.434;2022-10-10T08:26:04;7.10;;;3.47;;
13588;SDS011;6865;52.552;13.434;2022-10-10T08:28:32;7.30;;;3.27;;
13588;SDS011;6865;52.552;13.434;2022-10-10T08:31:03;9.90;;;4.53;;
13588;SDS011;6865;52.552;13.434;2022-10-10T08:33:31;8.17;;;3.20;;
13588;SDS011;6865;52.552;13.434;2022-10-10T08:35:58;6.17;;;3.03;;
13588;SDS011;6865;52.552;13.434;2022-10-10T08:38:28;4.27;;;2.97;;
13588;SDS011;6865;52.552;13.434;2022-10-10T08:40:55;7.67;;;3.20;;
13588;SDS011;6865;52.552;13.434;2022-10-10T08:43:29;8.67;;;2.93;;
13588;SDS011;6865;52.552;13.434;2022-10-10T08:46:17;5.67;;;3.37;;
13588;SDS011;6865;52.552;13.434;2022-10-10T08:48:51;7.50;;;3.27;;
13588;SDS011;6865;52.552;13.434;2022-10-10T08:51:30;9.37;;;3.30;;
13588;SDS011;6865;52.552;13.434;2022-10-10T08:53:58;7.80;;;3.13;;
13588;SDS011;6865;52.552;13.434;2022-10-10T08:56:28;4.57;;;2.63;;
13588;SDS011;6865;52.552;13.434;2022-10-10T08:58:59;6.10;;;2.67;;
13588;SDS011;6865;52.552;13.434;2022-10-10T09:01:42;4.93;;;2.80;;
13588;SDS011;6865;52.552;13.434;2022-10-10T09:04:29;7.37;;;3.13;;
13588;SDS011;6865;52.552;13.434;2022-10-10T09:07:05;5.03;;;3.00;;
13588;SDS011;6865;52.552;13.434;2022-10-10T09:10:02;6.80;;;3.60;;
13588;SDS011;6865;52.552;13.434;2022-10-10T09:15:34;6.60;;;3.10;;
13588;SDS011;6865;52.552;13.434;2022-10-10T09:21:12;8.37;;;3.23;;
13588;SDS011;6865;52.552;13.434;2022-10-10T09:23:45;9.27;;;2.83;;
13588;SDS011;6865;52.552;13.434;2022-10-10T09:26:30;6.37;;;2.90;;
13588;SDS011;6865;52.552;13.434;2022-10-10T09:29:20;6.47;;;3.00;;
13588;SDS011;6865;52.552;13.434;2022-10-10T09:32:26;8.30;;;2.90;;
13588;SDS011;6865;52.552;13.434;2022-10-10T09:35:16;9.00;;;3.17;;
13588;SDS011;6865;52.552;13.434;2022-10-10T09:37:49;5.43;;;2.87;;
13588;SDS011;6865;52.552;13.434;2022-10-10T09:40:38;5.07;;;2.63;;
13588;SDS011;6865;52.552;13.434;2022-10-10T09:43:16;5.80;;;2.77;;
13588;SDS011;6865;52.552;13.434;2022-10-10T09:45:45;4.97;;;2.83;;
13588;SDS011;6865;52.552;13.434;2022-10-10T09:48:17;6.93;;;2.80;;
13588;SDS011;6865;52.552;13.434;2022-10-10T09:50:53;4.70;;;2.47;;
13588;SDS011;6865;52.552;13.434;2022-10-10T09:53:20;8.23;;;2.90;;
13588;SDS011;6865;52.552;13.434;2022-10-10T09:55:46;8.80;;;3.23;;
13588;SDS011;6865;52.552;13.434;2022-10-10T09:58:20;6.47;;;3.03;;
13588;SDS011;6865;52.552;13.434;2022-10-10T10:01:12;4.80;;;3.20;;
13588;SDS011;6865;52.552;13.434;2022-10-10T10:06:51;9.87;;;2.77;;
13588;SDS011;6865;52.552;13.434;2022-10-10T10:09:30;6.43;;;3.07;;
13588;SDS011;6865;52.552;13.434;2022-10-10T10:11:57;6.63;;;3.10;;
13588;SDS011;6865;52.552;13.434;2022-10-10T10:14:28;6.00;;;2.67;;
13588;SDS011;6865;52.552;13.434;2022-10-10T10:17:33;5.73;;;2.73;;
13588;SDS011;6865;52.552;13.434;2022-10-10T10:19:53;8.80;;;3.00;;
13588;SDS011;6865;52.552;13.434;2022-10-10T10:22:30;6.37;;;3.10;;
13588;SDS011;6865;52.552;13.434;2022-10-10T10:25:00;6.93;;;2.90;;
13588;SDS011;6865;52.552;13.434;2022-10-10T10:28:12;6.40;;;2.90;;
13588;SDS011;6865;52.552;13.434;2022-10-10T10:30:41;6.83;;;2.90;;
13588;SDS011;6865;52.552;13.434;2022-10-10T10:36:10;6.57;;;3.00;;
13588;SDS011;6865;52.552;13.434;2022-10-10T10:42:01;5.10;;;3.03;;
13588;SDS011;6865;52.552;13.434;2022-10-10T10:44:54;5.43;;;2.93;;
13588;SDS011;6865;52.552;13.434;2022-10-10T10:47:53;6.87;;;3.07;;
13588;SDS011;6865;52.552;13.434;2022-10-10T10:50:32;7.40;;;3.27;;
13588;SDS011;6865;52.552;13.434;2022-10-10T10:53:17;5.43;;;2.67;;
13588;SDS011;6865;52.552;13.434;2022-10-10T10:55:54;6.40;;;2.93;;
13588;SDS011;6865;52.552;13.434;2022-10-10T10:58:36;5.70;;;2.80;;
13588;SDS011;6865;52.552;13.434;2022-10-10T11:01:53;8.70;;;2.70;;
13588;SDS011;6865;52.552;13.434;2022-10-10T11:10:53;9.90;;;3.10;;
13588;SDS011;6865;52.552;13.434;2022-10-10T11:13:53;4.37;;;2.50;;
13588;SDS011;6865;52.552;13.434;2022-10-10T11:16:38;5.83;;;3.07;;
13588;SDS011;6865;52.552;13.434;2022-10-10T11:19:24;5.70;;;2.50;;
13588;SDS011;6865;52.552;13.434;2022-10-10T11:22:07;6.03;;;2.90;;
13588;SDS011;6865;52.552;13.434;2022-10-10T11:24:51;9.37;;;3.17;;
13588;SDS011;6865;52.552;13.434;2022-10-10T11:27:23;3.70;;;2.80;;
13588;SDS011;6865;52.552;13.434;2022-10-10T11:32:38;4.53;;;2.80;;
13588;SDS011;6865;52.552;13.434;2022-10-10T11:35:15;6.10;;;2.70;;
13588;SDS011;6865;52.552;13.434;2022-10-10T11:37:51;8.53;;;3.60;;
13588;SDS011;6865;52.552;13.434;2022-10-10T11:40:32;5.07;;;2.70;;
13588;SDS011;6865;52.552;13.434;2022-10-10T11:43:14;6.37;;;2.90;;
13588;SDS011;6865;52.552;13.434;2022-10-10T11:45:47;6.83;;;3.00;;
13588;SDS011;6865;52.552;13.434;2022-10-10T11:48:24;6.80;;;3.00;;
13588;SDS011;6865;52.552;13.434;2022-10-10T11:51:01;9.13;;;3.07;;
13588;SDS011;6865;52.552;13.434;2022-10-10T11:53:41;5.80;;;2.92;;
13588;SDS011;6865;52.552;13.434;2022-10-10T11:56:13;6.82;;;2.60;;
13588;SDS011;6865;52.552;13.434;2022-10-10T11:58:56;4.70;;;2.60;;
13588;SDS011;6865;52.552;13.434;2022-10-10T12:01:37;4.80;;;2.80;;
13588;SDS011;6865;52.552;13.434;2022-10-10T12:04:10;5.47;;;2.90;;
13588;SDS011;6865;52.552;13.434;2022-10-10T12:09:07;6.10;;;2.88;;
13588;SDS011;6865;52.552;13.434;2022-10-10T12:11:42;7.40;;;3.10;;
13588;SDS011;6865;52.552;13.434;2022-10-10T12:14:16;4.27;;;2.63;;
13588;SDS011;6865;52.552;13.434;2022-10-10T12:16:46;5.72;;;3.15;;
13588;SDS011;6865;52.552;13.434;2022-10-10T12:19:17;3.97;;;2.92;;
13588;SDS011;6865;52.552;13.434;2022-10-10T12:21:53;5.28;;;2.95;;
13588;SDS011;6865;52.552;13.434;2022-10-10T12:24:22;7.20;;;2.60;;
13588;SDS011;6865;52.552;13.434;2022-10-10T12:29:40;4.10;;;2.83;;
13588;SDS011;6865;52.552;13.434;2022-10-10T12:35:11;5.97;;;2.85;;
13588;SDS011;6865;52.552;13.434;2022-10-10T12:40:33;4.85;;;2.80;;
13588;SDS011;6865;52.552;13.434;2022-10-10T12:46:35;5.53;;;3.00;;
13588;SDS011;6865;52.552;13.434;2022-10-10T12:51:44;4.65;;;2.97;;
13588;SDS011;6865;52.552;13.434;2022-10-10T12:54:25;7.10;;;2.90;;
13588;SDS011;6865;52.552;13.434;2022-10-10T12:57:03;8.43;;;3.22;;
13588;SDS011;6865;52.552;13.434;2022-10-10T12:59:36;7.80;;;3.20;;
13588;SDS011;6865;52.552;13.434;2022-10-10T13:05:08;5.28;;;2.80;;
13588;SDS011;6865;52.552;13.434;2022-10-10T13:07:40;5.40;;;3.10;;
13588;SDS011;6865;52.552;13.434;2022-10-10T13:10:15;6.88;;;3.10;;
13588;SDS011;6865;52.552;13.434;2022-10-10T13:13:02;6.00;;;3.15;;
13588;SDS011;6865;52.552;13.434;2022-10-10T13:15:32;4.55;;;3.10;;
13588;SDS011;6865;52.552;13.434;2022-10-10T13:18:00;4.28;;;2.90;;
13588;SDS011;6865;52.552;13.434;2022-10-10T13:23:02;7.97;;;3.20;;
13588;SDS011;6865;52.552;13.434;2022-10-10T13:25:39;5.68;;;3.13;;
13588;SDS011;6865;52.552;13.434;2022-10-10T13:28:17;7.60;;;3.38;;
13588;SDS011;6865;52.552;13.434;2022-10-10T13:30:46;7.35;;;3.03;;
13588;SDS011;6865;52.552;13.434;2022-10-10T13:33:19;6.85;;;3.22;;
13588;SDS011;6865;52.552;13.434;2022-10-10T13:35:48;5.55;;;2.83;;
13588;SDS011;6865;52.552;13.434;2022-10-10T13:38:17;6.28;;;3.35;;
13588;SDS011;6865;52.552;13.434;2022-10-10T13:40:49;4.53;;;3.10;;
13588;SDS011;6865;52.552;13.434;2022-10-10T13:43:17;5.13;;;2.95;;
13588;SDS011;6865;52.552;13.434;2022-10-10T13:46:01;7.68;;;3.38;;
13588;SDS011;6865;52.552;13.434;2022-10-10T13:51:03;7.47;;;3.42;;
13588;SDS011;6865;52.552;13.434;2022-10-10T13:53:43;6.18;;;3.13;;
13588;SDS011;6865;52.552;13.434;2022-10-10T13:56:15;6.80;;;3.25;;
13588;SDS011;6865;52.552;13.434;2022-10-10T14:06:38;6.53;;;3.55;;
13588;SDS011;6865;52.552;13.434;2022-10-10T14:09:53;9.70;;;3.72;;
13588;SDS011;6865;52.552;13.434;2022-10-10T14:12:00;6.25;;;3.63;;
13588;SDS011;6865;52.552;13.434;2022-10-10T14:14:32;7.45;;;3.20;;
13588;SDS011;6865;52.552;13.434;2022-10-10T14:17:19;4.85;;;3.10;;
13588;SDS011;6865;52.552;13.434;2022-10-10T14:19:46;6.70;;;3.30;;
13588;SDS011;6865;52.552;13.434;2022-10-10T14:22:14;7.93;;;3.65;;
13588;SDS011;6865;52.552;13.434;2022-10-10T14:24:41;7.55;;;3.85;;
13588;SDS011;6865;52.552;13.434;2022-10-10T14:29:44;5.63;;;3.40;;
13588;SDS011;6865;52.552;13.434;2022-10-10T14:32:12;9.07;;;3.50;;
13588;SDS011;6865;52.552;13.434;2022-10-10T14:34:39;5.88;;;3.58;;
13588;SDS011;6865;52.552;13.434;2022-10-10T14:37:13;7.32;;;3.58;;
13588;SDS011;6865;52.552;13.434;2022-10-10T14:39:45;6.63;;;3.40;;
13588;SDS011;6865;52.552;13.434;2022-10-10T14:42:13;4.97;;;3.38;;
13588;SDS011;6865;52.552;13.434;2022-10-10T14:44:43;6.55;;;3.30;;
13588;SDS011;6865;52.552;13.434;2022-10-10T14:47:14;4.38;;;3.22;;
13588;SDS011;6865;52.552;13.434;2022-10-10T14:49:43;6.82;;;3.17;;
13588;SDS011;6865;52.552;13.434;2022-10-10T14:52:10;6.82;;;3.30;;
13588;SDS011;6865;52.552;13.434;2022-10-10T14:54:39;7.85;;;3.15;;
13588;SDS011;6865;52.552;13.434;2022-10-10T14:57:07;7.70;;;3.92;;
13588;SDS011;6865;52.552;13.434;2022-10-10T14:59:35;7.07;;;3.30;;
13588;SDS011;6865;52.552;13.434;2022-10-10T15:02:15;7.30;;;3.22;;
13588;SDS011;6865;52.552;13.434;2022-10-10T15:04:45;6.68;;;3.28;;
13588;SDS011;6865;52.552;13.434;2022-10-10T15:07:13;6.22;;;3.20;;
13588;SDS011;6865;52.552;13.434;2022-10-10T15:09:41;5.15;;;3.40;;
13588;SDS011;6865;52.552;13.434;2022-10-10T15:12:33;10.77;;;3.30;;
13588;SDS011;6865;52.552;13.434;2022-10-10T15:15:02;10.25;;;3.30;;
13588;SDS011;6865;52.552;13.434;2022-10-10T15:17:30;4.53;;;3.00;;
13588;SDS011;6865;52.552;13.434;2022-10-10T15:19:59;7.25;;;3.33;;
13588;SDS011;6865;52.552;13.434;2022-10-10T15:22:27;7.25;;;3.47;;
13588;SDS011;6865;52.552;13.434;2022-10-10T15:24:55;6.97;;;3.20;;
13588;SDS011;6865;52.552;13.434;2022-10-10T15:27:22;5.00;;;3.67;;
13588;SDS011;6865;52.552;13.434;2022-10-10T15:29:48;8.52;;;3.42;;
13588;SDS011;6865;52.552;13.434;2022-10-10T15:32:15;5.95;;;3.55;;
13588;SDS011;6865;52.552;13.434;2022-10-10T15:34:42;6.88;;;3.58;;
13588;SDS011;6865;52.552;13.434;2022-10-10T15:37:08;7.38;;;3.90;;
13588;SDS011;6865;52.552;13.434;2022-10-10T15:39:35;6.38;;;3.70;;
13588;SDS011;6865;52.552;13.434;2022-10-10T15:42:03;8.48;;;3.30;;
13588;SDS011;6865;52.552;13.434;2022-10-10T15:44:42;10.30;;;3.70;;
13588;SDS011;6865;52.552;13.434;2022-10-10T15:47:11;6.90;;;3.55;;
13588;SDS011;6865;52.552;13.434;2022-10-10T15:49:38;5.82;;;3.60;;
13588;SDS011;6865;52.552;13.434;2022-10-10T15:52:05;6.35;;;3.90;;
13588;SDS011;6865;52.552;13.434;2022-10-10T15:54:32;5.85;;;4.20;;
13588;SDS011;6865;52.552;13.434;2022-10-10T15:56:59;9.90;;;3.72;;
13588;SDS011;6865;52.552;13.434;2022-10-10T15:59:26;6.32;;;3.50;;
13588;SDS011;6865;52.552;13.434;2022-10-10T16:01:52;10.18;;;3.67;;
13588;SDS011;6865;52.552;13.434;2022-10-10T16:04:21;7.87;;;4.07;;
13588;SDS011;6865;52.552;13.434;2022-10-10T16:06:50;5.57;;;3.92;;
13588;SDS011;6865;52.552;13.434;2022-10-10T16:09:31;5.30;;;3.50;;
13588;SDS011;6865;52.552;13.434;2022-10-10T16:11:59;7.43;;;3.60;;
13588;SDS011;6865;52.552;13.434;2022-10-10T16:14:26;11.98;;;3.53;;
13588;SDS011;6865;52.552;13.434;2022-10-10T16:16:54;6.80;;;3.90;;
13588;SDS011;6865;52.552;13.434;2022-10-10T16:19:20;10.07;;;4.30;;
13588;SDS011;6865;52.552;13.434;2022-10-10T16:21:47;11.23;;;4.85;;
13588;SDS011;6865;52.552;13.434;2022-10-10T16:24:14;8.45;;;4.45;;
13588;SDS011;6865;52.552;13.434;2022-10-10T16:26:40;6.82;;;3.83;;